Time;durP1;ratioP1;P1;durP2;ratioP2;P2;SDS_P1;SDS_P2;PMS_P1;PMS_P2;Temp;Humidity;BMP_temperature;BMP_pressure;BME280_temperature;BME280_humidity;BME280_pressure;Samples;Min_cycle;Max_cycle;Signal;HPM_P1;HPM_P2
2022/12/05 00:01:43;;;;;;;24.67;13.35;;;4.90;99.90;;;;;;6192800;23;20067;-72
2022/12/05 00:04:13;;;;;;;25.90;14.88;;;5.60;99.90;;;;;;6203537;23;20063;-74
2022/12/05 00:06:40;;;;;;;27.67;15.75;;;4.80;99.90;;;;;;6190757;23;20025;-71
2022/12/05 00:09:08;;;;;;;23.90;14.23;;;4.80;99.90;;;;;;6190432;23;20060;-72
2022/12/05 00:11:36;;;;;;;26.30;14.43;;;4.90;99.90;;;;;;6193398;23;20044;-72
2022/12/05 00:14:04;;;;;;;27.08;14.70;;;4.90;99.90;;;;;;6166275;23;20513;-72
2022/12/05 00:16:31;;;;;;;26.92;14.73;;;5.00;99.90;;;;;;6190821;23;20023;-72
2022/12/05 00:19:01;;;;;;;27.27;15.23;;;5.00;99.90;;;;;;6215610;23;20008;-70
2022/12/05 00:21:31;;;;;;;30.25;17.05;;;5.00;99.90;;;;;;6215908;23;20467;-72
2022/12/05 00:23:58;;;;;;;26.52;14.02;;;5.00;99.90;;;;;;6241568;23;20332;-71
2022/12/05 00:26:24;;;;;;;28.50;15.20;;;6.10;99.90;;;;;;6192409;23;20008;-73
2022/12/05 00:28:51;;;;;;;26.38;14.57;;;5.00;99.90;;;;;;6192367;23;20031;-73
2022/12/05 00:31:19;;;;;;;28.00;15.30;;;5.10;99.90;;;;;;6215994;23;20040;-73
2022/12/05 00:33:45;;;;;;;28.77;15.50;;;5.20;99.90;;;;;;6215912;23;20079;-73
2022/12/05 00:36:22;;;;;;;29.45;16.33;;;5.00;99.90;;;;;;6218781;23;20008;-73
2022/12/05 00:38:49;;;;;;;31.50;16.02;;;5.00;99.90;;;;;;6215133;23;20012;-74
2022/12/05 00:41:21;;;;;;;30.85;16.40;;;5.50;99.90;;;;;;6191022;23;20017;-73
2022/12/05 00:43:46;;;;;;;27.95;15.90;;;5.10;99.90;;;;;;6215891;23;20054;-72
2022/12/05 00:46:21;;;;;;;28.13;16.88;;;5.30;99.90;;;;;;6190866;23;20040;-72
2022/12/05 00:48:47;;;;;;;31.13;17.55;;;5.10;99.90;;;;;;6191259;23;20040;-74
2022/12/05 00:51:19;;;;;;;31.17;18.00;;;5.10;99.90;;;;;;6189444;23;20024;-74
2022/12/05 00:53:46;;;;;;;29.20;16.85;;;5.10;99.90;;;;;;6215264;23;20017;-72
2022/12/05 00:56:20;;;;;;;27.23;15.98;;;5.20;99.90;;;;;;6215550;23;20017;-71
2022/12/05 00:58:46;;;;;;;25.17;14.57;;;5.20;99.90;;;;;;6215771;23;20008;-72
2022/12/05 01:01:15;;;;;;;29.40;16.10;;;5.20;99.90;;;;;;6190203;23;20016;-73
2022/12/05 01:03:42;;;;;;;31.67;16.65;;;5.20;99.90;;;;;;6216629;23;20016;-73
2022/12/05 01:06:09;;;;;;;29.10;16.15;;;5.20;99.90;;;;;;6191237;23;20024;-73
2022/12/05 01:08:35;;;;;;;28.33;16.00;;;5.30;99.90;;;;;;6191845;23;20330;-71
2022/12/05 01:11:03;;;;;;;27.35;14.77;;;5.30;99.90;;;;;;6192087;23;20038;-71
2022/12/05 01:13:28;;;;;;;29.20;15.55;;;5.30;99.90;;;;;;6192727;23;20017;-71
2022/12/05 01:15:54;;;;;;;25.45;15.85;;;5.40;99.90;;;;;;6168649;23;20076;-71
2022/12/05 01:18:21;;;;;;;23.40;13.55;;;5.40;99.90;;;;;;6216707;23;20366;-72
2022/12/05 01:20:51;;;;;;;24.73;14.02;;;5.50;99.90;;;;;;6218381;23;20251;-71
2022/12/05 01:23:17;;;;;;;22.25;12.73;;;5.50;99.90;;;;;;6220106;23;20012;-71
2022/12/05 01:25:46;;;;;;;20.30;12.98;;;5.60;99.90;;;;;;6168455;23;20054;-73
2022/12/05 01:28:12;;;;;;;21.20;12.88;;;5.50;99.90;;;;;;6218295;23;20247;-71
2022/12/05 01:30:39;;;;;;;21.05;12.50;;;5.50;99.90;;;;;;6220297;23;20008;-72
2022/12/05 01:33:05;;;;;;;17.73;11.13;;;5.70;99.90;;;;;;6219717;23;20008;-72
2022/12/05 01:35:32;;;;;;;16.48;10.82;;;5.70;99.90;;;;;;6195240;23;20054;-72
2022/12/05 01:37:58;;;;;;;16.13;10.48;;;5.70;99.90;;;;;;6195407;23;20267;-72
2022/12/05 01:40:24;;;;;;;18.80;11.25;;;5.80;99.90;;;;;;6194253;23;20028;-71
2022/12/05 01:42:50;;;;;;;17.98;11.80;;;5.70;99.90;;;;;;6195827;23;20024;-72
2022/12/05 01:45:30;;;;;;;16.55;11.43;;;5.80;99.90;;;;;;6217711;23;20179;-72
2022/12/05 01:47:56;;;;;;;18.75;12.27;;;5.80;99.90;;;;;;6219587;23;20020;-73
2022/12/05 01:50:22;;;;;;;19.33;11.48;;;5.70;99.90;;;;;;6215392;23;20081;-73
2022/12/05 01:52:48;;;;;;;19.17;11.45;;;5.80;99.90;;;;;;6194701;23;20036;-72
2022/12/05 01:55:16;;;;;;;14.77;9.35;;;5.80;99.90;;;;;;6169816;23;20326;-72
2022/12/05 01:57:44;;;;;;;16.55;10.32;;;5.80;99.90;;;;;;6218258;23;20077;-73
2022/12/05 02:00:14;;;;;;;14.18;10.20;;;5.70;99.90;;;;;;6218260;23;20020;-72
2022/12/05 02:02:45;;;;;;;17.23;10.98;;;5.70;99.90;;;;;;6218868;23;20549;-72
2022/12/05 02:05:17;;;;;;;14.73;9.25;;;5.70;99.90;;;;;;6192955;23;20349;-72
2022/12/05 02:07:45;;;;;;;15.50;9.35;;;5.70;99.90;;;;;;6220496;23;20049;-71
2022/12/05 02:10:11;;;;;;;12.48;8.82;;;5.80;99.90;;;;;;6168108;23;20008;-72
2022/12/05 02:12:37;;;;;;;15.40;9.73;;;5.70;99.90;;;;;;6216877;23;20021;-71
2022/12/05 02:15:25;;;;;;;17.90;10.55;;;5.80;99.90;;;;;;6216355;23;20021;-71
2022/12/05 02:18:07;;;;;;;13.80;9.05;;;5.70;99.90;;;;;;6217148;23;20019;-71
2022/12/05 02:20:48;;;;;;;16.13;10.75;;;5.70;99.90;;;;;;6217254;23;20012;-71
2022/12/05 02:23:36;;;;;;;14.27;9.35;;;5.70;99.90;;;;;;6216040;23;20016;-71
2022/12/05 02:26:33;;;;;;;13.90;8.95;;;5.70;99.90;;;;;;6216988;23;20012;-71
2022/12/05 02:29:33;;;;;;;16.02;8.88;;;5.80;99.90;;;;;;6195951;23;20013;-71
2022/12/05 02:32:19;;;;;;;13.20;8.35;;;5.70;99.90;;;;;;6218821;23;20076;-71
2022/12/05 02:35:23;;;;;;;14.32;8.57;;;5.70;99.90;;;;;;6215876;23;20075;-72
2022/12/05 02:37:56;;;;;;;11.65;8.40;;;5.70;99.90;;;;;;6193827;23;20016;-71
2022/12/05 02:40:40;;;;;;;13.32;9.20;;;5.70;99.90;;;;;;6219542;23;20012;-72
2022/12/05 02:43:12;;;;;;;15.70;8.98;;;5.70;99.90;;;;;;6196006;23;20295;-72
2022/12/05 02:45:40;;;;;;;10.88;7.28;;;5.60;99.90;;;;;;6219801;23;20028;-72
2022/12/05 02:48:06;;;;;;;13.15;8.40;;;5.70;99.90;;;;;;6219473;23;20017;-72
2022/12/05 02:50:35;;;;;;;12.63;8.20;;;5.60;99.90;;;;;;6168676;23;20195;-71
2022/12/05 02:53:10;;;;;;;12.75;8.23;;;5.60;99.90;;;;;;6220019;23;20059;-71
2022/12/05 02:55:37;;;;;;;15.00;9.07;;;5.70;99.90;;;;;;6193181;23;20021;-72
2022/12/05 02:58:10;;;;;;;13.48;7.75;;;6.50;99.90;;;;;;6220215;23;20012;-71
2022/12/05 03:00:38;;;;;;;12.95;7.78;;;5.70;99.90;;;;;;6220386;23;20020;-72
2022/12/05 03:03:15;;;;;;;12.77;8.00;;;5.70;99.90;;;;;;6193433;23;20020;-72
2022/12/05 03:06:03;;;;;;;14.65;7.40;;;5.50;99.90;;;;;;6216758;23;20076;-71
2022/12/05 03:08:38;;;;;;;10.63;6.90;;;5.70;99.90;;;;;;6220142;23;20021;-71
2022/12/05 03:11:05;;;;;;;12.38;7.45;;;5.60;99.90;;;;;;6219478;23;20058;-72
2022/12/05 03:13:43;;;;;;;13.75;7.60;;;5.70;99.90;;;;;;6219077;23;20017;-72
2022/12/05 03:16:19;;;;;;;10.55;7.93;;;5.50;99.90;;;;;;6219661;23;20060;-71
2022/12/05 03:18:50;;;;;;;10.77;7.53;;;5.70;99.90;;;;;;6221258;23;20009;-72
2022/12/05 03:21:30;;;;;;;15.07;8.13;;;6.50;99.90;;;;;;6218151;23;20496;-72
2022/12/05 03:24:01;;;;;;;12.93;7.55;;;5.50;99.90;;;;;;6218987;23;20012;-71
2022/12/05 03:26:39;;;;;;;12.40;8.25;;;5.60;99.90;;;;;;6217314;23;20017;-72
2022/12/05 03:29:07;;;;;;;12.00;8.23;;;5.60;99.90;;;;;;6193323;23;20020;-71
2022/12/05 03:31:38;;;;;;;12.30;8.15;;;5.70;99.90;;;;;;6217869;23;20258;-72
2022/12/05 03:34:12;;;;;;;11.15;7.45;;;5.50;99.90;;;;;;6193283;23;20087;-73
2022/12/05 03:36:44;;;;;;;10.18;5.80;;;5.60;99.90;;;;;;6217811;23;20023;-71
2022/12/05 03:39:27;;;;;;;9.05;6.55;;;5.50;99.90;;;;;;6217819;23;20203;-72
2022/12/05 03:42:13;;;;;;;10.48;7.35;;;5.70;99.90;;;;;;6218140;23;20036;-72
2022/12/05 03:44:46;;;;;;;11.57;7.63;;;5.50;99.90;;;;;;6218029;23;20518;-71
2022/12/05 03:47:14;;;;;;;9.95;6.65;;;5.80;99.90;;;;;;6219497;23;20016;-72
2022/12/05 03:49:50;;;;;;;10.40;6.97;;;5.80;99.90;;;;;;6220495;23;20019;-71
2022/12/05 03:52:26;;;;;;;10.73;7.20;;;5.70;99.90;;;;;;6220775;23;20009;-71
2022/12/05 03:55:05;;;;;;;9.02;7.05;;;5.70;99.90;;;;;;6220405;23;20017;-72
2022/12/05 03:57:51;;;;;;;15.52;7.68;;;5.50;99.90;;;;;;6219717;23;20085;-72
2022/12/05 04:00:19;;;;;;;11.60;7.78;;;5.70;99.90;;;;;;6219350;23;20020;-73
2022/12/05 04:02:57;;;;;;;12.55;7.35;;;5.80;99.90;;;;;;6217789;23;20008;-72
2022/12/05 04:05:27;;;;;;;11.70;7.72;;;5.80;99.90;;;;;;6217254;23;20027;-73
2022/12/05 04:08:19;;;;;;;10.55;7.40;;;5.70;99.90;;;;;;6218567;23;20020;-72
2022/12/05 04:10:48;;;;;;;11.18;6.68;;;5.70;99.90;;;;;;6218878;23;20043;-72
2022/12/05 04:13:38;;;;;;;13.10;7.53;;;6.50;99.90;;;;;;6216350;23;20024;-72
2022/12/05 04:19:21;;;;;;;12.43;7.10;;;5.80;99.90;;;;;;6218333;23;20066;-72
2022/12/05 04:21:51;;;;;;;11.07;5.68;;;5.80;99.90;;;;;;6220008;23;20008;-71
2022/12/05 04:27:15;;;;;;;11.52;6.82;;;5.90;99.90;;;;;;6218346;23;20055;-73
2022/12/05 04:30:04;;;;;;;10.27;7.47;;;5.60;99.90;;;;;;6219051;23;20307;-73
2022/12/05 04:32:39;;;;;;;10.18;6.85;;;5.90;99.90;;;;;;6217432;23;20012;-73
2022/12/05 04:35:12;;;;;;;11.48;6.75;;;6.00;99.90;;;;;;6219083;23;20653;-72
2022/12/05 04:37:41;;;;;;;11.10;7.13;;;5.70;99.90;;;;;;6216705;23;20008;-73
2022/12/05 04:40:16;;;;;;;8.07;5.60;;;6.20;99.90;;;;;;6217786;23;20012;-73
2022/12/05 04:42:44;;;;;;;;;;;5.80;99.90;;;;;;6217687;23;20008;-73
2022/12/05 04:45:12;;;;;;;14.10;7.35;;;5.90;99.90;;;;;;6217017;23;19920;-73
2022/12/05 04:47:47;;;;;;;12.80;7.20;;;7.10;99.90;;;;;;6217541;23;20024;-73
2022/12/05 04:50:14;;;;;;;16.05;7.80;;;6.20;99.90;;;;;;6217525;23;20306;-73
2022/12/05 04:52:44;;;;;;;12.63;6.60;;;5.90;99.90;;;;;;6216249;23;20017;-73
2022/12/05 04:55:16;;;;;;;12.57;7.18;;;6.10;99.90;;;;;;6217457;23;20016;-73
2022/12/05 04:58:17;;;;;;;14.48;6.65;;;5.70;99.90;;;;;;6217224;23;20030;-73
2022/12/05 05:01:10;;;;;;;10.02;6.85;;;5.90;99.90;;;;;;6217234;23;20013;-72
2022/12/05 05:03:46;;;;;;;12.20;7.68;;;6.00;99.90;;;;;;6217675;23;20106;-74
2022/12/05 05:06:12;;;;;;;12.95;6.80;;;5.70;99.90;;;;;;6217299;23;20066;-73
2022/12/05 05:08:50;;;;;;;14.35;8.00;;;6.00;99.90;;;;;;6190603;23;20067;-73
2022/12/05 05:11:25;;;;;;;11.73;7.20;;;6.10;99.90;;;;;;6217836;23;20009;-74
2022/12/05 05:13:52;;;;;;;14.07;7.90;;;6.00;99.90;;;;;;6191486;23;20024;-73
2022/12/05 05:16:32;;;;;;;10.18;7.18;;;6.10;99.90;;;;;;6216838;23;20055;-73
2022/12/05 05:18:58;;;;;;;10.50;6.75;;;5.60;99.90;;;;;;6217646;23;20103;-73
2022/12/05 05:21:25;;;;;;;11.35;6.97;;;6.00;99.90;;;;;;6189534;23;20028;-73
2022/12/05 05:23:51;;;;;;;9.60;5.97;;;5.90;99.90;;;;;;6193635;23;20068;-72
2022/12/05 05:26:18;;;;;;;9.63;5.93;;;6.00;99.90;;;;;;6191516;23;20027;-73
2022/12/05 05:28:44;;;;;;;9.35;6.53;;;6.00;99.90;;;;;;6214857;23;20020;-72
2022/12/05 05:31:10;;;;;;;11.05;5.90;;;6.00;99.90;;;;;;6192709;23;20567;-73
2022/12/05 05:33:38;;;;;;;12.43;6.90;;;6.00;99.90;;;;;;6216551;23;20064;-73
2022/12/05 05:36:10;;;;;;;11.55;6.68;;;6.00;99.90;;;;;;6219541;23;20072;-73
2022/12/05 05:38:37;;;;;;;10.35;6.53;;;5.90;99.90;;;;;;6216903;23;20470;-73
2022/12/05 05:41:04;;;;;;;11.93;7.03;;;6.30;99.90;;;;;;6192884;23;20040;-74
2022/12/05 05:43:30;;;;;;;9.95;5.82;;;5.80;99.90;;;;;;6218043;23;20020;-73
2022/12/05 05:45:56;;;;;;;10.15;6.70;;;6.10;99.90;;;;;;6193987;23;20028;-74
2022/12/05 05:48:21;;;;;;;10.75;7.03;;;5.70;99.90;;;;;;6215622;23;20561;-73
2022/12/05 05:50:47;;;;;;;11.38;5.35;;;5.80;99.90;;;;;;6217220;23;20107;-73
2022/12/05 05:53:13;;;;;;;10.25;6.50;;;5.80;99.90;;;;;;6216850;23;20059;-73
2022/12/05 05:55:42;;;;;;;11.25;6.97;;;6.10;99.90;;;;;;6218068;23;20087;-73
2022/12/05 05:58:08;;;;;;;12.32;7.22;;;5.80;99.90;;;;;;6218803;23;20170;-73
2022/12/05 06:00:34;;;;;;;12.15;6.82;;;5.90;99.90;;;;;;6167640;23;20311;-74
2022/12/05 06:03:00;;;;;;;10.15;6.10;;;5.90;99.90;;;;;;6193717;23;20019;-74
2022/12/05 06:05:25;;;;;;;9.60;5.78;;;5.80;99.90;;;;;;6166542;23;20533;-74
2022/12/05 06:07:52;;;;;;;9.75;6.70;;;5.80;99.90;;;;;;6193111;23;20024;-73
2022/12/05 06:10:18;;;;;;;10.65;5.68;;;6.30;99.90;;;;;;6193123;23;20320;-73
2022/12/05 06:12:44;;;;;;;11.20;7.57;;;6.50;99.90;;;;;;6218239;23;20032;-74
2022/12/05 06:15:10;;;;;;;10.60;5.90;;;5.70;99.90;;;;;;6218400;23;20466;-73
2022/12/05 06:17:37;;;;;;;10.77;6.20;;;6.00;99.90;;;;;;6195229;23;20299;-72
2022/12/05 06:20:04;;;;;;;10.85;6.32;;;5.80;99.90;;;;;;6216626;23;20017;-73
2022/12/05 06:22:30;;;;;;;10.45;6.75;;;6.10;99.90;;;;;;6215132;23;20377;-74
2022/12/05 06:24:56;;;;;;;10.60;7.10;;;6.00;99.90;;;;;;6193011;23;20017;-73
2022/12/05 06:27:22;;;;;;;13.38;7.15;;;6.00;99.90;;;;;;6220239;23;20019;-73
2022/12/05 06:29:48;;;;;;;12.95;7.10;;;5.80;99.90;;;;;;6191665;23;20017;-73
2022/12/05 06:32:13;;;;;;;12.10;6.60;;;7.30;99.90;;;;;;6192933;23;20063;-72
2022/12/05 06:34:39;;;;;;;9.40;5.90;;;7.10;99.90;;;;;;6193401;23;20016;-72
2022/12/05 06:37:05;;;;;;;12.82;6.95;;;5.80;99.90;;;;;;6219801;23;20012;-73
2022/12/05 06:39:31;;;;;;;11.80;7.30;;;6.10;99.90;;;;;;6192628;23;20175;-73
2022/12/05 06:41:56;;;;;;;13.43;7.30;;;6.20;99.90;;;;;;6218109;23;20012;-73
2022/12/05 06:44:25;;;;;;;13.52;7.22;;;6.20;99.90;;;;;;6168350;23;20318;-72
2022/12/05 06:46:52;;;;;;;8.40;5.13;;;6.90;99.90;;;;;;6218030;23;20307;-72
2022/12/05 06:49:17;;;;;;;13.30;7.63;;;6.10;99.90;;;;;;6168649;23;20024;-72
2022/12/05 06:51:43;;;;;;;13.65;7.47;;;6.20;99.90;;;;;;6218055;23;20523;-72
2022/12/05 06:54:11;;;;;;;11.77;6.28;;;5.80;99.90;;;;;;6193307;23;20072;-72
2022/12/05 06:56:37;;;;;;;35.78;18.15;;;6.10;99.90;;;;;;6193542;23;20017;-72
2022/12/05 06:59:02;;;;;;;14.48;8.25;;;6.70;99.90;;;;;;6193162;23;20368;-71
2022/12/05 07:01:41;;;;;;;15.55;8.60;;;6.10;99.90;;;;;;6217856;23;20004;-72
2022/12/05 07:04:16;;;;;;;13.32;7.38;;;6.20;99.90;;;;;;6170617;23;20015;-72
2022/12/05 07:06:44;;;;;;;14.07;7.35;;;5.90;99.90;;;;;;6218721;23;20008;-72
2022/12/05 07:09:09;;;;;;;14.35;8.18;;;6.20;99.90;;;;;;6221203;23;20106;-72
2022/12/05 07:11:35;;;;;;;16.42;7.85;;;6.10;99.90;;;;;;6219241;23;20023;-72
2022/12/05 07:14:03;;;;;;;16.17;8.45;;;6.20;99.90;;;;;;6194195;23;20021;-72
2022/12/05 07:16:30;;;;;;;17.65;9.13;;;5.80;99.90;;;;;;6195295;23;20011;-73
2022/12/05 07:18:56;;;;;;;15.27;7.88;;;5.80;99.90;;;;;;6220598;23;20326;-73
2022/12/05 07:21:22;;;;;;;16.65;8.38;;;6.00;99.90;;;;;;6195861;23;20005;-72
2022/12/05 07:23:51;;;;;;;15.43;8.32;;;6.10;99.90;;;;;;6217982;23;20322;-73
2022/12/05 07:26:20;;;;;;;17.08;7.85;;;6.10;99.90;;;;;;6191598;23;20012;-73
2022/12/05 07:28:46;;;;;;;13.70;8.27;;;6.00;99.90;;;;;;6191091;23;20058;-77
2022/12/05 07:31:19;;;;;;;19.75;8.95;;;6.10;99.90;;;;;;6192646;23;20024;-72
2022/12/05 07:33:45;;;;;;;17.05;7.68;;;5.90;99.90;;;;;;6220212;23;20016;-75
2022/12/05 07:36:13;;;;;;;17.15;8.40;;;6.00;99.90;;;;;;6220264;23;20015;-73
2022/12/05 07:38:40;;;;;;;17.20;8.10;;;5.80;99.90;;;;;;6194193;23;20012;-72
2022/12/05 07:41:18;;;;;;;14.43;7.35;;;5.80;99.90;;;;;;6216292;23;20585;-72
2022/12/05 07:43:46;;;;;;;13.57;7.72;;;5.80;99.90;;;;;;6220645;23;20124;-72
2022/12/05 07:46:16;;;;;;;15.32;7.90;;;5.80;99.90;;;;;;6195890;23;20012;-71
2022/12/05 07:48:42;;;;;;;14.57;7.47;;;6.00;99.90;;;;;;6195299;23;20012;-72
2022/12/05 07:51:11;;;;;;;14.32;7.78;;;6.00;99.90;;;;;;6219967;23;20016;-71
2022/12/05 07:53:40;;;;;;;13.27;7.65;;;6.10;99.90;;;;;;6220815;23;20064;-71
2022/12/05 07:56:08;;;;;;;14.23;7.72;;;6.10;99.90;;;;;;6192998;23;20008;-72
2022/12/05 07:58:34;;;;;;;16.80;8.55;;;6.10;99.90;;;;;;6243600;23;20357;-71
2022/12/05 08:01:08;;;;;;;15.00;7.47;;;6.20;99.90;;;;;;6195750;23;20040;-71
2022/12/05 08:03:36;;;;;;;14.27;7.53;;;5.90;99.90;;;;;;6220621;23;20051;-71
2022/12/05 08:06:06;;;;;;;10.85;6.45;;;5.90;99.90;;;;;;6220844;23;20070;-71
2022/12/05 08:08:32;;;;;;;14.25;7.60;;;6.20;99.90;;;;;;6219139;23;20012;-72
2022/12/05 08:11:06;;;;;;;13.18;6.63;;;5.90;99.90;;;;;;6193238;23;20129;-71
2022/12/05 08:13:32;;;;;;;16.77;8.53;;;5.90;99.90;;;;;;6216294;23;20016;-71
2022/12/05 08:16:03;;;;;;;11.15;6.95;;;5.90;99.90;;;;;;6218458;23;20248;-71
2022/12/05 08:18:29;;;;;;;12.88;7.25;;;6.10;99.90;;;;;;6214074;23;20075;-70
2022/12/05 08:20:59;;;;;;;11.70;6.75;;;6.00;99.90;;;;;;6215600;23;20054;-71
2022/12/05 08:23:28;;;;;;;13.57;7.10;;;6.10;99.90;;;;;;6217528;23;20072;-71
2022/12/05 08:25:53;;;;;;;17.67;7.43;;;5.90;99.90;;;;;;6216112;23;20160;-70
2022/12/05 08:28:19;;;;;;;10.57;6.43;;;6.00;99.90;;;;;;6218037;23;20425;-69
2022/12/05 08:30:44;;;;;;;12.75;6.57;;;5.90;99.90;;;;;;6215425;23;20017;-70
2022/12/05 08:33:10;;;;;;;11.02;6.93;;;6.10;99.90;;;;;;6219179;23;20114;-70
2022/12/05 08:35:36;;;;;;;10.55;6.40;;;6.50;99.90;;;;;;6192458;23;20013;-70
2022/12/05 08:38:02;;;;;;;16.33;7.78;;;5.90;99.90;;;;;;6217625;23;20023;-73
2022/12/05 08:40:28;;;;;;;11.75;6.85;;;6.10;99.90;;;;;;6217179;23;20315;-71
2022/12/05 08:42:53;;;;;;;10.45;6.50;;;6.10;99.90;;;;;;6216398;23;20027;-70
2022/12/05 08:45:19;;;;;;;17.05;9.35;;;5.90;99.90;;;;;;6213194;23;20055;-70
2022/12/05 08:47:45;;;;;;;12.05;6.35;;;6.10;99.90;;;;;;6214041;23;20026;-70
2022/12/05 08:50:10;;;;;;;13.60;7.00;;;5.90;99.90;;;;;;6215482;23;20063;-72
2022/12/05 08:52:36;;;;;;;14.23;7.10;;;6.50;99.90;;;;;;6192048;23;20008;-71
2022/12/05 08:55:02;;;;;;;12.02;7.07;;;6.10;99.90;;;;;;6192901;23;20023;-71
2022/12/05 08:57:27;;;;;;;14.07;7.45;;;6.10;99.90;;;;;;6215578;23;20012;-72
2022/12/05 08:59:53;;;;;;;10.48;5.80;;;7.20;99.90;;;;;;6217946;23;20020;-71
2022/12/05 09:02:18;;;;;;;16.05;7.75;;;6.10;99.90;;;;;;6217923;23;20059;-72
2022/12/05 09:04:48;;;;;;;12.95;7.55;;;6.10;99.90;;;;;;6216220;23;20027;-74
2022/12/05 09:07:14;;;;;;;16.15;8.38;;;6.10;99.90;;;;;;6214781;23;20095;-71
2022/12/05 09:09:39;;;;;;;12.45;6.88;;;6.10;99.90;;;;;;6214269;23;20349;-71
2022/12/05 09:12:05;;;;;;;12.82;6.93;;;6.10;99.90;;;;;;6188557;23;20269;-71
2022/12/05 09:14:31;;;;;;;13.40;7.43;;;5.90;99.90;;;;;;6217003;23;20024;-72
2022/12/05 09:16:58;;;;;;;14.15;7.38;;;6.10;99.90;;;;;;6214188;23;20020;-72
2022/12/05 09:19:26;;;;;;;14.18;7.72;;;6.00;99.90;;;;;;6215641;23;20016;-72
2022/12/05 09:21:52;;;;;;;17.52;8.15;;;6.20;99.90;;;;;;6189426;23;20017;-73
2022/12/05 09:24:18;;;;;;;16.60;8.40;;;6.10;99.90;;;;;;6216847;23;20076;-72
2022/12/05 09:26:46;;;;;;;14.80;6.82;;;6.00;99.90;;;;;;6213601;23;20368;-72
2022/12/05 09:29:12;;;;;;;14.00;8.23;;;6.00;99.90;;;;;;6189891;23;20028;-72
2022/12/05 09:31:38;;;;;;;15.15;7.80;;;6.20;99.90;;;;;;6214042;23;20017;-72
2022/12/05 09:34:03;;;;;;;19.42;9.65;;;5.90;99.90;;;;;;6192886;23;20035;-72
2022/12/05 09:36:30;;;;;;;15.05;7.50;;;6.10;99.90;;;;;;6189612;23;20307;-72
2022/12/05 09:39:03;;;;;;;18.25;9.07;;;6.10;99.90;;;;;;6214759;23;20020;-72
2022/12/05 09:42:08;;;;;;;17.02;8.73;;;5.90;99.90;;;;;;6216199;23;20027;-72
2022/12/05 09:44:56;;;;;;;12.30;6.15;;;5.90;99.90;;;;;;6220389;23;20044;-72
2022/12/05 09:47:30;;;;;;;15.00;7.82;;;6.10;99.90;;;;;;6218942;23;20303;-72
2022/12/05 09:50:20;;;;;;;17.83;9.13;;;6.10;99.90;;;;;;6191795;23;20025;-72
2022/12/05 09:52:58;;;;;;;18.02;9.07;;;5.80;99.90;;;;;;6215988;23;20051;-73
2022/12/05 09:55:26;;;;;;;14.00;8.60;;;5.80;99.90;;;;;;6216638;23;20017;-73
2022/12/05 09:57:56;;;;;;;14.73;7.35;;;6.00;99.90;;;;;;6190419;23;20342;-72
2022/12/05 10:00:22;;;;;;;14.75;7.57;;;6.00;99.90;;;;;;6216764;23;20040;-72
2022/12/05 10:03:04;;;;;;;16.23;7.75;;;6.10;99.90;;;;;;6190904;23;20013;-73
2022/12/05 10:05:51;;;;;;;13.65;7.53;;;6.10;99.90;;;;;;6217559;23;20013;-72
2022/12/05 10:08:27;;;;;;;11.88;7.22;;;5.90;99.90;;;;;;6217806;23;20016;-73
2022/12/05 10:11:02;;;;;;;14.13;7.90;;;5.80;99.90;;;;;;6215975;23;20020;-72
2022/12/05 10:13:40;;;;;;;10.80;6.70;;;5.80;99.90;;;;;;6220151;23;20051;-70
2022/12/05 10:16:34;;;;;;;12.32;7.78;;;5.80;99.90;;;;;;6220423;23;20056;-73
2022/12/05 10:19:09;;;;;;;15.70;7.20;;;5.80;99.90;;;;;;6210891;23;20076;-73
2022/12/05 10:21:50;;;;;;;13.18;7.38;;;6.80;99.90;;;;;;6194254;23;20000;-72
2022/12/05 10:24:22;;;;;;;13.77;7.22;;;6.10;99.90;;;;;;6220653;23;20270;-72
2022/12/05 10:26:56;;;;;;;15.18;7.35;;;6.00;99.90;;;;;;6218997;23;20009;-73
2022/12/05 10:29:34;;;;;;;15.35;7.80;;;5.90;99.90;;;;;;6219798;23;20219;-72
2022/12/05 10:32:27;;;;;;;12.05;7.15;;;5.90;99.90;;;;;;6219129;23;20013;-71
2022/12/05 10:35:05;;;;;;;12.05;7.13;;;6.20;99.90;;;;;;6219181;23;20016;-71
2022/12/05 10:37:31;;;;;;;11.57;7.18;;;5.90;99.90;;;;;;6220127;23;20021;-71
2022/12/05 10:39:57;;;;;;;11.70;7.32;;;6.10;99.90;;;;;;6216120;23;20317;-71
2022/12/05 10:42:30;;;;;;;11.52;7.15;;;6.30;99.90;;;;;;6219658;23;20063;-71
2022/12/05 10:44:58;;;;;;;12.63;7.43;;;5.90;99.90;;;;;;6193927;23;20046;-71
2022/12/05 10:47:24;;;;;;;10.45;6.63;;;6.10;99.90;;;;;;6219770;23;20016;-71
2022/12/05 10:49:51;;;;;;;13.90;6.47;;;5.90;99.90;;;;;;6216407;23;20015;-71
2022/12/05 10:52:17;;;;;;;11.82;6.70;;;5.80;99.90;;;;;;6168911;23;20334;-72
2022/12/05 10:54:48;;;;;;;9.70;6.75;;;5.90;99.90;;;;;;6193362;23;20064;-71
2022/12/05 10:57:26;;;;;;;11.45;6.22;;;6.10;99.90;;;;;;6193333;23;20027;-72
2022/12/05 10:59:53;;;;;;;11.85;6.07;;;6.10;99.90;;;;;;6217362;23;20031;-71
2022/12/05 11:02:28;;;;;;;11.20;6.40;;;6.20;99.90;;;;;;6218773;23;20057;-71
2022/12/05 11:04:54;;;;;;;;;;;6.30;99.90;;;;;;6218525;23;20180;-71
2022/12/05 11:07:44;;;;;;;9.75;6.07;;;6.20;99.90;;;;;;6193054;23;20085;-71
2022/12/05 11:10:30;;;;;;;12.00;6.70;;;6.00;99.90;;;;;;6189005;23;20040;-70
2022/12/05 11:12:57;;;;;;;12.10;6.30;;;6.00;99.90;;;;;;6204260;23;20024;-70
2022/12/05 11:15:28;;;;;;;13.05;6.53;;;6.10;99.90;;;;;;6193691;23;20036;-71
2022/12/05 11:17:58;;;;;;;13.23;6.88;;;6.00;99.90;;;;;;6214464;23;20012;-71
2022/12/05 11:20:24;;;;;;;10.50;6.43;;;6.10;99.90;;;;;;6192074;23;20012;-72
2022/12/05 11:22:55;;;;;;;11.77;6.28;;;5.90;99.90;;;;;;6192052;23;20020;-72
2022/12/05 11:25:24;;;;;;;9.05;6.13;;;5.90;99.90;;;;;;6219363;23;20224;-71
2022/12/05 11:27:49;;;;;;;8.60;5.97;;;6.20;99.90;;;;;;6191951;23;20039;-72
2022/12/05 11:30:24;;;;;;;9.95;5.32;;;6.10;99.90;;;;;;6217907;23;20200;-73
2022/12/05 11:32:50;;;;;;;12.20;6.97;;;6.00;99.90;;;;;;6218038;23;20031;-72
2022/12/05 11:35:16;;;;;;;11.30;5.57;;;6.10;99.90;;;;;;6193233;23;20016;-72
2022/12/05 11:38:04;;;;;;;14.30;6.07;;;6.20;99.90;;;;;;6218453;23;20012;-72
2022/12/05 11:40:39;;;;;;;10.90;6.10;;;6.10;99.90;;;;;;6219516;23;20066;-73
2022/12/05 11:43:20;;;;;;;10.02;4.95;;;5.90;99.90;;;;;;6219123;23;20046;-72
2022/12/05 11:46:14;;;;;;;8.20;5.47;;;6.10;99.90;;;;;;6214798;23;20047;-72
2022/12/05 11:49:04;;;;;;;9.50;6.05;;;5.80;99.90;;;;;;6215006;23;20051;-73
2022/12/05 11:51:53;;;;;;;11.95;5.63;;;6.00;99.90;;;;;;6216412;23;20031;-73
2022/12/05 11:54:24;;;;;;;8.85;5.55;;;5.90;99.90;;;;;;6215149;23;20017;-73
2022/12/05 11:56:55;;;;;;;10.32;6.05;;;6.10;99.90;;;;;;6215609;23;20491;-73
2022/12/05 11:59:24;;;;;;;9.98;5.70;;;5.80;99.90;;;;;;6190146;23;20013;-72
2022/12/05 12:02:14;;;;;;;11.43;5.85;;;5.80;99.90;;;;;;6215144;23;20195;-71
2022/12/05 12:04:48;;;;;;;8.38;4.90;;;5.90;99.90;;;;;;6213970;23;20023;-72
2022/12/05 12:07:43;;;;;;;9.65;5.10;;;6.00;99.90;;;;;;6192571;23;20311;-71
2022/12/05 12:10:18;;;;;;;10.05;5.32;;;6.10;99.90;;;;;;6219707;23;20063;-73
2022/12/05 12:12:55;;;;;;;8.18;5.32;;;6.00;99.90;;;;;;6192586;23;20147;-73
2022/12/05 12:15:42;;;;;;;9.77;5.63;;;6.30;99.90;;;;;;6217501;23;20025;-73
2022/12/05 12:18:33;;;;;;;14.70;5.32;;;6.30;99.90;;;;;;6217583;23;20039;-72
2022/12/05 12:21:26;;;;;;;8.00;5.07;;;5.90;99.90;;;;;;6213864;23;20842;-73
2022/12/05 12:24:42;;;;;;;9.13;5.00;;;5.90;99.90;;;;;;6214552;23;20020;-71
2022/12/05 12:27:16;;;;;;;7.60;4.95;;;6.10;99.90;;;;;;6213739;23;20011;-72
2022/12/05 12:30:14;;;;;;;7.15;5.07;;;6.30;99.90;;;;;;6214803;23;20024;-72
2022/12/05 12:32:58;;;;;;;8.95;5.25;;;6.30;99.90;;;;;;6215269;23;20012;-72
2022/12/05 12:35:32;;;;;;;9.77;4.85;;;6.20;99.90;;;;;;6192548;23;20008;-72
2022/12/05 12:38:00;;;;;;;10.02;5.82;;;6.00;99.90;;;;;;6191759;23;20020;-72
2022/12/05 12:40:42;;;;;;;9.52;4.80;;;5.90;99.90;;;;;;6219234;23;20072;-73
2022/12/05 12:43:20;;;;;;;6.00;4.65;;;6.20;99.90;;;;;;6217819;23;20072;-73
2022/12/05 12:46:01;;;;;;;7.63;4.85;;;5.90;99.90;;;;;;6217586;23;20062;-73
2022/12/05 12:48:57;;;;;;;8.88;5.97;;;6.10;99.90;;;;;;6218574;23;20017;-74
2022/12/05 12:51:22;;;;;;;8.68;4.65;;;6.20;99.90;;;;;;6217057;23;20047;-74
2022/12/05 12:54:11;;;;;;;7.65;5.07;;;6.10;99.90;;;;;;6215870;23;20016;-71
2022/12/05 12:57:02;;;;;;;9.82;5.05;;;6.00;99.90;;;;;;6216077;23;20017;-72
2022/12/05 12:59:52;;;;;;;7.47;4.63;;;6.20;99.90;;;;;;6217545;23;20020;-73
2022/12/05 13:02:25;;;;;;;9.60;5.32;;;6.30;99.90;;;;;;6218268;23;20018;-73
2022/12/05 13:04:57;;;;;;;9.73;5.00;;;6.30;99.90;;;;;;6215393;23;20099;-72
2022/12/05 13:07:37;;;;;;;21.80;4.75;;;6.00;99.90;;;;;;6191937;23;20009;-72
2022/12/05 13:10:24;;;;;;;90.55;8.23;;;6.30;99.90;;;;;;6217041;23;20013;-72
2022/12/05 13:12:50;;;;;;;10.60;5.00;;;6.00;99.90;;;;;;6216046;23;20066;-72
2022/12/05 13:15:23;;;;;;;9.13;4.55;;;6.30;99.90;;;;;;6218026;23;20111;-72
2022/12/05 13:17:50;;;;;;;12.90;5.03;;;6.30;99.90;;;;;;6219237;23;20231;-73
2022/12/05 13:20:21;;;;;;;10.50;4.72;;;6.00;99.90;;;;;;6195758;23;20040;-73